Time;durP1;ratioP1;P1;durP2;ratioP2;P2;SDS_P1;SDS_P2;PMS_P1;PMS_P2;Temp;Humidity;BMP_temperature;BMP_pressure;BME280_temperature;BME280_humidity;BME280_pressure;Samples;Min_cycle;Max_cycle;Signal;HPM_P1;HPM_P2
2022/01/04 00:01:08;;;;;;;27.40;9.95;;;8.50;99.90;;;;;;5101065;28;20020;-86
2022/01/04 00:03:34;;;;;;;24.80;10.57;;;8.60;99.90;;;;;;5120052;28;20567;-86
2022/01/04 00:06:00;;;;;;;27.80;10.88;;;8.60;99.90;;;;;;5113294;28;20052;-86
2022/01/04 00:08:26;;;;;;;30.52;11.40;;;8.60;99.90;;;;;;5112386;28;20051;-87
2022/01/04 00:11:05;;;;;;;32.47;11.50;;;8.50;99.90;;;;;;5095325;28;20408;-86
2022/01/04 00:13:30;;;;;;;34.90;11.65;;;8.60;99.90;;;;;;5060283;28;20638;-87
2022/01/04 00:15:56;;;;;;;32.72;10.73;;;8.60;99.90;;;;;;5075604;28;20052;-86
2022/01/04 00:18:22;;;;;;;32.88;10.90;;;8.70;99.90;;;;;;5075171;28;20457;-86
2022/01/04 00:20:48;;;;;;;27.63;10.07;;;8.60;99.90;;;;;;5095483;28;20039;-87
2022/01/04 00:23:14;;;;;;;26.52;10.88;;;8.50;99.90;;;;;;5078228;28;20096;-84
2022/01/04 00:25:40;;;;;;;36.28;10.73;;;8.80;99.90;;;;;;5061937;28;20475;-86
2022/01/04 00:28:07;;;;;;;39.38;9.77;;;8.60;99.90;;;;;;5078560;28;20055;-86
2022/01/04 00:30:37;;;;;;;26.60;9.32;;;8.70;99.90;;;;;;5061745;28;20372;-87
2022/01/04 00:33:04;;;;;;;28.55;10.35;;;9.10;99.90;;;;;;5095159;28;20182;-84
2022/01/04 00:35:29;;;;;;;23.25;8.00;;;8.70;99.90;;;;;;5078055;28;20047;-85
2022/01/04 00:37:57;;;;;;;28.88;8.93;;;8.70;99.90;;;;;;5078653;28;20395;-86
2022/01/04 00:40:23;;;;;;;26.20;9.63;;;8.70;99.90;;;;;;5078019;28;20047;-85
2022/01/04 00:42:48;;;;;;;24.25;8.50;;;8.70;99.90;;;;;;5095189;28;20055;-86
2022/01/04 00:45:14;;;;;;;24.30;8.95;;;8.60;99.90;;;;;;5129439;27;20039;-85
2022/01/04 00:49:09;;;;;;;26.83;8.45;;;8.60;99.90;;;;;;5094993;28;20047;-86
2022/01/04 00:50:32;;;;;;;31.85;9.65;;;8.70;99.90;;;;;;5110867;28;20108;-86
2022/01/04 00:52:58;;;;;;;31.83;9.80;;;8.60;99.90;;;;;;5127207;27;20062;-84
2022/01/04 00:55:24;;;;;;;32.35;10.15;;;8.60;99.90;;;;;;5111431;28;20059;-85
2022/01/04 00:57:50;;;;;;;27.88;8.35;;;8.60;99.90;;;;;;5061774;28;20071;-85
2022/01/04 01:00:16;;;;;;;30.05;9.32;;;8.50;99.90;;;;;;5095229;28;20036;-86
2022/01/04 01:02:42;;;;;;;25.70;7.30;;;8.50;99.90;;;;;;5076897;28;20519;-86
2022/01/04 01:05:08;;;;;;;33.65;8.93;;;8.60;99.90;;;;;;5078053;28;20072;-86
2022/01/04 01:07:34;;;;;;;27.10;8.05;;;8.50;99.90;;;;;;5077236;28;20066;-85
2022/01/04 01:12:26;;;;;;;26.50;9.00;;;8.40;99.90;;;;;;5094057;28;20055;-85
2022/01/04 01:14:52;;;;;;;27.52;8.68;;;8.40;99.90;;;;;;5073961;28;20492;-86
2022/01/04 01:17:17;;;;;;;34.70;9.00;;;8.50;99.90;;;;;;5091153;28;20083;-86
2022/01/04 01:19:43;;;;;;;32.38;10.02;;;8.50;99.90;;;;;;5090340;28;20043;-85
2022/01/04 01:22:09;;;;;;;35.42;9.73;;;8.50;99.90;;;;;;5104828;28;20043;-86
2022/01/04 01:24:34;;;;;;;32.08;9.70;;;8.60;99.90;;;;;;5077076;28;20432;-85
2022/01/04 01:27:00;;;;;;;25.70;10.02;;;8.50;99.90;;;;;;5094166;28;20121;-86
2022/01/04 01:29:27;;;;;;;27.33;9.07;;;8.50;99.90;;;;;;5094071;28;20111;-87
2022/01/04 01:31:52;;;;;;;31.70;10.20;;;8.40;99.90;;;;;;5126719;27;20052;-87
2022/01/04 01:34:18;;;;;;;27.33;10.38;;;8.40;99.90;;;;;;5111449;28;20065;-87
2022/01/04 01:36:44;;;;;;;33.65;10.30;;;8.40;99.90;;;;;;5110719;28;20437;-86
2022/01/04 01:39:09;;;;;;;26.27;9.70;;;8.40;99.90;;;;;;5094668;28;20128;-86
2022/01/04 01:41:35;;;;;;;28.65;9.73;;;8.40;99.90;;;;;;5128002;27;20731;-85
2022/01/04 01:44:01;;;;;;;28.90;10.45;;;8.40;99.90;;;;;;5094556;28;20547;-85
2022/01/04 01:46:26;;;;;;;33.63;10.27;;;8.40;99.90;;;;;;5110327;28;20039;-85
2022/01/04 01:48:52;;;;;;;33.10;10.63;;;8.30;99.90;;;;;;5077418;28;20043;-86
2022/01/04 01:51:18;;;;;;;32.28;11.30;;;8.20;99.90;;;;;;5094492;28;20079;-86
2022/01/04 01:53:44;;;;;;;29.98;10.68;;;8.20;99.90;;;;;;5072261;28;20492;-86
2022/01/04 01:56:10;;;;;;;26.27;10.82;;;8.20;99.90;;;;;;5090294;28;20052;-85
2022/01/04 01:58:35;;;;;;;31.95;12.32;;;8.20;99.90;;;;;;5073348;28;20051;-86
2022/01/04 02:01:01;;;;;;;34.50;11.02;;;8.20;99.90;;;;;;5073430;28;20051;-85
2022/01/04 02:03:27;;;;;;;34.45;11.23;;;8.20;99.90;;;;;;5098991;28;20050;-86
2022/01/04 02:05:52;;;;;;;34.58;11.07;;;8.00;99.90;;;;;;5077240;28;20048;-85
2022/01/04 02:08:18;;;;;;;32.60;11.55;;;8.30;99.90;;;;;;5076875;28;20046;-84
2022/01/04 02:10:44;;;;;;;33.30;11.27;;;8.20;99.90;;;;;;5093253;28;20127;-85
2022/01/04 02:13:10;;;;;;;35.90;13.98;;;8.20;99.90;;;;;;5060372;28;20114;-86
2022/01/04 02:15:35;;;;;;;36.03;12.65;;;8.40;99.90;;;;;;5093277;28;20059;-85
2022/01/04 02:18:01;;;;;;;34.85;13.13;;;8.20;99.90;;;;;;5077252;28;20055;-85
2022/01/04 02:20:27;;;;;;;36.40;12.68;;;8.90;99.90;;;;;;5093669;28;20433;-85
2022/01/04 02:22:54;;;;;;;33.88;12.85;;;8.20;99.90;;;;;;5076358;28;20048;-85
2022/01/04 02:25:20;;;;;;;37.97;13.07;;;8.30;99.90;;;;;;5093305;28;20077;-85
2022/01/04 02:27:45;;;;;;;41.25;13.73;;;8.30;99.90;;;;;;5093133;28;20036;-85
2022/01/04 02:30:14;;;;;;;35.53;13.82;;;8.20;99.90;;;;;;5110929;28;20051;-85
2022/01/04 02:32:41;;;;;;;34.05;12.93;;;8.20;99.90;;;;;;5076750;28;20475;-86
2022/01/04 02:35:07;;;;;;;37.03;12.73;;;8.50;99.90;;;;;;5080246;28;20051;-85
2022/01/04 02:37:33;;;;;;;40.08;13.57;;;8.40;99.90;;;;;;5081048;28;20108;-86
2022/01/04 02:39:58;;;;;;;30.98;14.05;;;8.50;99.90;;;;;;5081770;28;20058;-85
2022/01/04 02:42:24;;;;;;;37.45;13.77;;;8.40;99.90;;;;;;5098576;28;20075;-86
2022/01/04 02:44:50;;;;;;;39.72;14.00;;;8.40;99.90;;;;;;5097534;28;20048;-86
2022/01/04 02:47:16;;;;;;;28.20;12.63;;;8.40;99.90;;;;;;5115067;28;20050;-85
2022/01/04 02:49:41;;;;;;;33.92;13.45;;;8.30;99.90;;;;;;5097568;28;20051;-86
2022/01/04 02:52:07;;;;;;;36.90;13.50;;;8.20;99.90;;;;;;5081306;28;20172;-85
2022/01/04 02:54:33;;;;;;;34.13;13.45;;;8.20;99.90;;;;;;5063840;28;20047;-86
2022/01/04 02:56:59;;;;;;;32.15;14.20;;;8.10;99.90;;;;;;5080684;28;20074;-86
2022/01/04 02:59:24;;;;;;;34.53;14.02;;;8.20;99.90;;;;;;5097824;28;20039;-87
2022/01/04 03:01:50;;;;;;;35.40;13.88;;;8.10;99.90;;;;;;5113401;28;20054;-86
2022/01/04 03:04:16;;;;;;;34.92;14.05;;;8.10;99.90;;;;;;5097667;28;20039;-85
2022/01/04 03:06:41;;;;;;;43.67;13.55;;;8.10;99.90;;;;;;5097019;27;20460;-86
2022/01/04 03:09:07;;;;;;;41.95;14.27;;;8.30;99.90;;;;;;5080470;28;20052;-86
2022/01/04 03:11:33;;;;;;;35.70;13.75;;;8.30;99.90;;;;;;5097267;28;20051;-85
2022/01/04 03:13:59;;;;;;;39.85;14.95;;;8.20;99.90;;;;;;5095032;28;20047;-86
2022/01/04 03:16:25;;;;;;;38.78;14.10;;;8.20;99.90;;;;;;5079866;28;20104;-85
2022/01/04 03:19:03;;;;;;;36.55;13.23;;;8.60;99.90;;;;;;5096271;28;20047;-86
2022/01/04 03:21:39;;;;;;;32.15;13.57;;;8.20;99.90;;;;;;5098980;28;20054;-85
2022/01/04 03:24:06;;;;;;;36.70;13.73;;;8.90;99.90;;;;;;5096719;28;20118;-85
2022/01/04 03:26:32;;;;;;;41.10;14.13;;;8.30;99.90;;;;;;5113739;28;20044;-85
2022/01/04 03:28:57;;;;;;;39.30;14.10;;;8.30;99.90;;;;;;5079679;28;20440;-85
2022/01/04 03:31:24;;;;;;;36.47;13.20;;;8.20;99.90;;;;;;5080365;28;20504;-86
2022/01/04 03:33:49;;;;;;;39.58;14.73;;;8.20;99.90;;;;;;5079173;28;20079;-86
2022/01/04 03:36:15;;;;;;;40.00;14.13;;;8.20;99.90;;;;;;5079808;28;20078;-86
2022/01/04 03:38:42;;;;;;;34.53;14.27;;;8.30;99.90;;;;;;5079835;28;20094;-86
2022/01/04 03:41:09;;;;;;;40.75;15.00;;;8.20;99.90;;;;;;5098308;28;20499;-86
2022/01/04 03:43:37;;;;;;;36.17;15.18;;;8.20;99.90;;;;;;5117930;28;20027;-86
2022/01/04 03:46:04;;;;;;;45.95;16.23;;;8.20;99.90;;;;;;5069346;28;20051;-86
2022/01/04 03:48:29;;;;;;;37.22;15.52;;;8.30;99.90;;;;;;5079996;28;20059;-86
2022/01/04 03:50:55;;;;;;;42.40;16.42;;;8.50;99.90;;;;;;5112965;28;20054;-86
2022/01/04 03:53:21;;;;;;;40.78;16.13;;;8.30;99.90;;;;;;5113151;28;20070;-86
2022/01/04 03:55:46;;;;;;;35.63;16.75;;;8.20;99.90;;;;;;5112064;28;20052;-87
2022/01/04 03:58:12;;;;;;;43.75;17.63;;;8.20;99.90;;;;;;5113198;28;20085;-87
2022/01/04 04:00:38;;;;;;;40.95;17.67;;;8.10;99.90;;;;;;5095601;28;20035;-86
2022/01/04 04:03:03;;;;;;;42.40;17.75;;;8.20;99.90;;;;;;5095447;28;20154;-85
2022/01/04 04:05:29;;;;;;;41.92;17.00;;;8.10;99.90;;;;;;5078645;28;20062;-85
2022/01/04 04:07:54;;;;;;;46.45;18.08;;;8.20;99.90;;;;;;5078226;28;20093;-85
2022/01/04 04:10:20;;;;;;;45.25;17.67;;;8.20;99.90;;;;;;5079212;28;20096;-85
2022/01/04 04:12:46;;;;;;;43.72;18.23;;;8.10;99.90;;;;;;5112260;28;20050;-85
2022/01/04 04:15:12;;;;;;;40.90;18.70;;;8.10;99.90;;;;;;5078685;28;20079;-85
2022/01/04 04:17:37;;;;;;;43.88;18.20;;;8.10;99.90;;;;;;5112680;28;20050;-85
2022/01/04 04:20:04;;;;;;;43.17;17.67;;;8.10;99.90;;;;;;5077903;28;20312;-86
2022/01/04 04:22:30;;;;;;;47.95;17.73;;;8.10;99.90;;;;;;5078947;28;20086;-85
2022/01/04 04:24:55;;;;;;;46.70;18.95;;;8.20;99.90;;;;;;5094972;28;20094;-85
2022/01/04 04:27:21;;;;;;;40.47;17.17;;;8.20;99.90;;;;;;5095937;28;20073;-86
2022/01/04 04:29:49;;;;;;;44.15;19.00;;;8.30;99.90;;;;;;5095332;28;20101;-85
2022/01/04 04:32:15;;;;;;;42.60;17.50;;;8.30;99.90;;;;;;5095758;28;20425;-85
2022/01/04 04:34:41;;;;;;;40.10;18.67;;;8.30;99.90;;;;;;5095587;28;20051;-85
2022/01/04 04:37:06;;;;;;;44.00;17.83;;;8.30;99.90;;;;;;5094222;28;20047;-85
2022/01/04 04:39:32;;;;;;;40.15;18.67;;;8.20;99.90;;;;;;5113409;28;20043;-85
2022/01/04 04:41:58;;;;;;;41.00;17.33;;;8.30;99.90;;;;;;5111741;28;20126;-86
2022/01/04 04:44:24;;;;;;;47.42;21.85;;;8.20;99.90;;;;;;5095484;28;20050;-86
2022/01/04 04:46:49;;;;;;;48.92;21.02;;;8.20;99.90;;;;;;5094613;28;20057;-86
2022/01/04 04:49:15;;;;;;;42.38;18.75;;;8.20;99.90;;;;;;5061800;28;20044;-86
2022/01/04 04:51:41;;;;;;;38.28;19.88;;;8.30;99.90;;;;;;5061595;28;20084;-87
2022/01/04 04:54:08;;;;;;;39.42;17.20;;;8.30;99.90;;;;;;5094168;28;20659;-86
2022/01/04 04:56:34;;;;;;;46.53;19.27;;;8.50;99.90;;;;;;5094915;28;20051;-86
2022/01/04 04:59:00;;;;;;;41.83;18.92;;;8.30;99.90;;;;;;5111422;28;20062;-87
2022/01/04 05:01:26;;;;;;;50.25;19.30;;;8.40;99.90;;;;;;5094790;28;20047;-85
2022/01/04 05:03:52;;;;;;;50.47;19.45;;;8.30;99.90;;;;;;5094262;28;20056;-85
2022/01/04 05:06:18;;;;;;;42.13;19.45;;;8.30;99.90;;;;;;5095076;28;20062;-87
2022/01/04 05:08:44;;;;;;;44.42;18.50;;;8.20;99.90;;;;;;5061324;28;20047;-87
2022/01/04 05:11:09;;;;;;;42.55;18.17;;;8.20;99.90;;;;;;5077483;28;20513;-86
2022/01/04 05:13:35;;;;;;;34.88;17.20;;;8.20;99.90;;;;;;5094917;28;20056;-87
2022/01/04 05:16:01;;;;;;;40.42;18.75;;;8.20;99.90;;;;;;5077391;28;20066;-86
2022/01/04 05:18:26;;;;;;;46.03;17.35;;;8.20;99.90;;;;;;5094339;28;20044;-86
2022/01/04 05:20:52;;;;;;;44.53;19.92;;;7.70;99.90;;;;;;5093492;28;20553;-87
2022/01/04 05:23:18;;;;;;;40.50;19.42;;;8.30;99.90;;;;;;5094414;28;20079;-85
2022/01/04 05:25:43;;;;;;;37.22;17.63;;;8.30;99.90;;;;;;5061272;28;20040;-86
2022/01/04 05:28:09;;;;;;;44.08;19.42;;;8.30;99.90;;;;;;5093738;28;20499;-86
2022/01/04 05:30:34;;;;;;;41.50;17.92;;;8.20;99.90;;;;;;5111306;28;20051;-86
2022/01/04 05:33:00;;;;;;;46.58;19.38;;;8.20;99.90;;;;;;5076910;28;20126;-86
2022/01/04 05:35:27;;;;;;;46.17;19.33;;;8.30;99.90;;;;;;5094364;28;20051;-86
2022/01/04 05:37:53;;;;;;;40.95;19.65;;;8.30;99.90;;;;;;5094438;28;20051;-85
2022/01/04 05:40:18;;;;;;;44.25;19.95;;;8.40;99.90;;;;;;5110723;28;20040;-87
2022/01/04 05:42:44;;;;;;;41.30;18.83;;;8.40;99.90;;;;;;5111421;28;20054;-86
2022/01/04 05:45:10;;;;;;;45.45;20.90;;;8.40;99.90;;;;;;5111525;28;20043;-86
2022/01/04 05:47:35;;;;;;;41.47;19.85;;;8.40;99.90;;;;;;5082051;28;20483;-86
2022/01/04 05:50:01;;;;;;;39.15;20.88;;;8.40;99.90;;;;;;5135377;28;20071;-86
2022/01/04 05:52:27;;;;;;;45.45;20.38;;;8.40;99.90;;;;;;5061612;28;20052;-86
2022/01/04 05:54:52;;;;;;;35.70;19.20;;;8.40;99.90;;;;;;5094252;28;20087;-86
2022/01/04 05:57:18;;;;;;;36.42;18.77;;;8.50;99.90;;;;;;5093730;28;20090;-85
2022/01/04 05:59:44;;;;;;;42.63;19.45;;;8.40;99.90;;;;;;5093468;28;20035;-86
2022/01/04 06:02:09;;;;;;;40.05;19.00;;;8.40;99.90;;;;;;5092709;28;20510;-86
2022/01/04 06:04:35;;;;;;;42.35;19.50;;;8.40;99.90;;;;;;5077166;28;20047;-86
2022/01/04 06:07:01;;;;;;;42.63;19.33;;;8.30;99.90;;;;;;5093280;28;20058;-87
2022/01/04 06:09:38;;;;;;;36.33;19.08;;;8.40;99.90;;;;;;5093520;28;20040;-86
2022/01/04 06:14:49;;;;;;;46.67;19.58;;;9.00;99.90;;;;;;5093123;28;20072;-87
2022/01/04 06:15:11;;;;;;;44.53;18.45;;;8.30;99.90;;;;;;5127917;27;20047;-86
2022/01/04 06:17:49;;;;;;;43.60;19.17;;;8.30;99.90;;;;;;5111924;28;20135;-86
2022/01/04 06:20:17;;;;;;;35.53;19.25;;;8.30;99.90;;;;;;5076701;28;20043;-85
2022/01/04 06:22:43;;;;;;;44.72;19.33;;;8.30;99.90;;;;;;5093525;28;20129;-86
2022/01/04 06:25:13;;;;;;;42.65;19.70;;;8.30;99.90;;;;;;5060088;28;20171;-88
2022/01/04 06:27:41;;;;;;;38.38;18.13;;;8.30;99.90;;;;;;5060770;28;20055;-88
2022/01/04 06:30:08;;;;;;;36.30;18.75;;;8.30;99.90;;;;;;5076262;28;20114;-90
2022/01/04 06:32:34;;;;;;;42.50;20.30;;;8.30;99.90;;;;;;5076850;28;20567;-90
2022/01/04 06:35:00;;;;;;;34.42;19.55;;;8.30;99.90;;;;;;5060120;28;20146;-87
2022/01/04 06:37:25;;;;;;;44.35;20.77;;;8.30;99.90;;;;;;5093598;28;20177;-91
2022/01/04 06:39:51;;;;;;;35.85;19.25;;;8.30;99.90;;;;;;5093441;28;20048;-85
2022/01/04 06:42:16;;;;;;;46.80;19.65;;;8.30;99.90;;;;;;5092500;28;20054;-86
2022/01/04 06:44:43;;;;;;;45.35;20.35;;;8.40;99.90;;;;;;5076552;28;20050;-86
2022/01/04 06:47:10;;;;;;;44.50;21.00;;;8.40;99.90;;;;;;5075938;28;20483;-86
2022/01/04 06:49:36;;;;;;;48.33;20.95;;;8.40;99.90;;;;;;5076519;28;20043;-87
2022/01/04 06:52:03;;;;;;;41.60;19.05;;;8.40;99.90;;;;;;5076175;28;20431;-86
2022/01/04 06:54:28;;;;;;;33.15;17.73;;;8.40;99.90;;;;;;5093042;28;20093;-86
2022/01/04 06:56:54;;;;;;;40.10;19.70;;;8.50;99.90;;;;;;5110003;28;20122;-86
2022/01/04 06:59:20;;;;;;;40.35;19.52;;;8.30;99.90;;;;;;5092629;28;20138;-86
2022/01/04 07:01:45;;;;;;;39.03;18.52;;;8.30;99.90;;;;;;5076511;28;20438;-87
2022/01/04 07:04:11;;;;;;;38.85;17.83;;;8.30;99.90;;;;;;5075886;28;20134;-86
2022/01/04 07:06:37;;;;;;;38.30;17.60;;;8.30;99.90;;;;;;5076070;28;20048;-87
2022/01/04 07:09:04;;;;;;;35.10;17.23;;;8.30;99.90;;;;;;5093227;28;20047;-87
2022/01/04 07:11:30;;;;;;;39.30;16.67;;;8.20;99.90;;;;;;5059592;28;20142;-85
2022/01/04 07:13:55;;;;;;;30.40;17.23;;;8.30;99.90;;;;;;5109779;28;20132;-85
2022/01/04 07:16:21;;;;;;;38.08;18.88;;;8.30;99.90;;;;;;5075590;28;20368;-85
2022/01/04 07:18:48;;;;;;;35.65;19.63;;;8.20;99.90;;;;;;5076290;28;20056;-85
2022/01/04 07:21:18;;;;;;;36.22;18.83;;;8.20;99.90;;;;;;5093519;28;20540;-85
2022/01/04 07:23:43;;;;;;;41.22;20.27;;;8.20;99.90;;;;;;5096411;28;20039;-85
2022/01/04 07:26:14;;;;;;;37.47;18.33;;;8.10;99.90;;;;;;5096372;28;20760;-86
2022/01/04 07:28:47;;;;;;;39.05;19.42;;;8.20;99.90;;;;;;5097691;28;20051;-86
2022/01/04 07:31:13;;;;;;;38.33;19.98;;;8.10;99.90;;;;;;5096829;28;20051;-86
2022/01/04 07:33:39;;;;;;;37.47;19.15;;;8.20;99.90;;;;;;5076376;28;20476;-86
2022/01/04 07:36:06;;;;;;;39.55;21.58;;;8.20;99.90;;;;;;5076859;28;20047;-86
2022/01/04 07:38:35;;;;;;;36.15;19.85;;;8.20;99.90;;;;;;5076598;28;20060;-86
2022/01/04 07:41:01;;;;;;;37.22;22.27;;;8.20;99.90;;;;;;5097195;28;20066;-85
2022/01/04 07:43:26;;;;;;;44.83;22.75;;;8.20;99.90;;;;;;5074298;28;20085;-86
2022/01/04 07:45:53;;;;;;;46.70;23.50;;;8.20;99.90;;;;;;5075605;28;20564;-85
2022/01/04 07:48:19;;;;;;;43.42;24.45;;;8.20;99.90;;;;;;5076382;28;20438;-85
2022/01/04 07:50:45;;;;;;;50.83;23.77;;;8.20;99.90;;;;;;5076342;28;20044;-85
2022/01/04 07:53:10;;;;;;;42.20;22.73;;;8.20;99.90;;;;;;5092038;28;20060;-85
2022/01/04 07:55:36;;;;;;;44.08;21.92;;;8.20;99.90;;;;;;5103318;27;20051;-86
2022/01/04 07:58:02;;;;;;;37.05;22.00;;;8.70;99.90;;;;;;5062788;28;20039;-85
2022/01/04 08:00:28;;;;;;;49.05;22.85;;;8.30;99.90;;;;;;5112803;28;20039;-86
2022/01/04 08:02:54;;;;;;;40.08;21.77;;;8.10;99.90;;;;;;5096529;28;20126;-86
2022/01/04 08:05:19;;;;;;;38.08;21.00;;;8.20;99.90;;;;;;5077437;28;20111;-85
2022/01/04 08:07:45;;;;;;;32.95;18.48;;;8.20;99.90;;;;;;5096139;28;20048;-86
2022/01/04 08:10:11;;;;;;;32.58;19.60;;;8.20;99.90;;;;;;5096087;28;20060;-86
2022/01/04 08:12:37;;;;;;;32.95;17.75;;;8.20;99.90;;;;;;5095796;28;20047;-85
2022/01/04 08:15:04;;;;;;;33.58;18.83;;;8.30;99.90;;;;;;5096021;28;20047;-86
2022/01/04 08:17:32;;;;;;;30.27;18.30;;;8.30;99.90;;;;;;5113550;28;20083;-86
2022/01/04 08:19:59;;;;;;;41.20;20.40;;;8.30;99.90;;;;;;5096123;28;20094;-84
2022/01/04 08:22:24;;;;;;;32.65;19.98;;;8.30;99.90;;;;;;5096267;28;20043;-86
2022/01/04 08:24:50;;;;;;;35.90;21.65;;;8.30;99.90;;;;;;5078999;28;20063;-85
2022/01/04 08:27:16;;;;;;;38.78;21.10;;;9.00;99.90;;;;;;5095988;28;20502;-85
2022/01/04 08:29:42;;;;;;;40.63;22.90;;;8.30;99.90;;;;;;5080106;28;20126;-86
2022/01/04 08:32:08;;;;;;;39.53;23.10;;;8.30;99.90;;;;;;5096025;28;20477;-85
2022/01/04 08:34:33;;;;;;;41.97;24.05;;;8.20;99.90;;;;;;5112847;28;20052;-85
2022/01/04 08:36:59;;;;;;;44.85;25.50;;;8.20;99.90;;;;;;5096198;28;20062;-86
2022/01/04 08:39:27;;;;;;;63.42;26.98;;;8.20;99.90;;;;;;5095230;28;20083;-84
2022/01/04 08:41:55;;;;;;;61.03;26.75;;;8.10;99.90;;;;;;5112207;28;20047;-84
2022/01/04 08:44:22;;;;;;;33.78;17.67;;;8.00;99.90;;;;;;5095112;28;20081;-84
2022/01/04 08:46:47;;;;;;;28.00;14.70;;;8.00;99.90;;;;;;5112314;28;20074;-85
2022/01/04 08:49:13;;;;;;;28.05;16.90;;;8.00;99.90;;;;;;5077983;28;20059;-85
2022/01/04 08:51:39;;;;;;;28.98;15.40;;;7.80;99.90;;;;;;5111739;28;20472;-87
2022/01/04 08:54:05;;;;;;;20.85;11.70;;;7.70;99.90;;;;;;5112442;28;20055;-88
2022/01/04 08:56:31;;;;;;;25.90;11.82;;;7.70;99.90;;;;;;5095586;28;20511;-88
2022/01/04 08:58:57;;;;;;;14.23;9.80;;;7.60;99.90;;;;;;5074478;28;20127;-89
2022/01/04 09:01:22;;;;;;;16.92;9.10;;;7.60;99.90;;;;;;5094467;28;20469;-87
2022/01/04 09:03:48;;;;;;;14.35;8.10;;;7.50;99.90;;;;;;5109401;28;20087;-88
2022/01/04 09:06:14;;;;;;;15.50;8.57;;;7.50;99.90;;;;;;5092328;28;20048;-88
2022/01/04 09:08:40;;;;;;;20.48;9.95;;;7.60;99.90;;;;;;5077002;28;20363;-88
2022/01/04 09:11:05;;;;;;;24.27;11.32;;;7.50;99.90;;;;;;5094024;28;20048;-88
2022/01/04 09:13:36;;;;;;;29.38;13.70;;;7.40;99.90;;;;;;5094955;28;20145;-90
2022/01/04 09:18:45;;;;;;;27.35;15.60;;;7.50;99.90;;;;;;5078209;28;20158;-90
2022/01/04 09:21:23;;;;;;;36.47;17.08;;;7.60;99.90;;;;;;5110457;28;20496;-90
2022/01/04 09:23:49;;;;;;;34.00;16.90;;;7.60;99.90;;;;;;5092368;28;20051;-91
2022/01/04 09:26:16;;;;;;;38.20;16.20;;;7.60;99.90;;;;;;5111871;28;20048;-92
2022/01/04 09:28:42;;;;;;;27.65;12.85;;;7.70;99.90;;;;;;5060703;28;20667;-90
2022/01/04 09:31:08;;;;;;;21.75;10.50;;;7.70;99.90;;;;;;5061487;28;20054;-90
2022/01/04 09:33:34;;;;;;;17.00;7.97;;;7.90;99.90;;;;;;5077490;28;20047;-90
2022/01/04 09:36:00;;;;;;;14.43;7.97;;;7.80;99.90;;;;;;5078904;28;20502;-93
2022/01/04 09:38:25;;;;;;;14.70;7.60;;;7.70;99.90;;;;;;5095088;28;20047;-91
2022/01/04 09:40:53;;;;;;;14.50;6.30;;;7.70;99.90;;;;;;5094438;28;20051;-90
2022/01/04 09:43:20;;;;;;;15.52;6.10;;;7.70;99.90;;;;;;5093967;28;20047;-92
2022/01/04 09:45:47;;;;;;;13.00;5.43;;;7.60;99.90;;;;;;5097900;28;20081;-91
2022/01/04 09:48:12;;;;;;;12.82;5.60;;;7.70;99.90;;;;;;5112061;28;20071;-90
2022/01/04 09:50:39;;;;;;;11.80;4.68;;;7.60;99.90;;;;;;5117747;28;20062;-91
2022/01/04 09:53:07;;;;;;;14.88;4.85;;;7.60;99.90;;;;;;5062831;28;20055;-90
2022/01/04 09:55:34;;;;;;;12.85;5.05;;;7.70;99.90;;;;;;5093947;28;20074;-88
2022/01/04 09:58:00;;;;;;;12.63;4.90;;;7.60;99.90;;;;;;5094618;28;20043;-92
2022/01/04 10:00:27;;;;;;;14.35;4.13;;;7.70;99.90;;;;;;5077053;28;20100;-86
2022/01/04 10:02:53;;;;;;;11.02;3.08;;;7.60;99.90;;;;;;5094165;28;20043;-92
2022/01/04 10:05:25;;;;;;;7.43;1.95;;;7.50;99.90;;;;;;5094173;28;20047;-91
2022/01/04 10:08:00;;;;;;;7.03;1.83;;;7.40;99.90;;;;;;5077546;28;20051;-90
2022/01/04 10:10:26;;;;;;;6.13;2.03;;;7.40;99.90;;;;;;5081128;28;20043;-88
2022/01/04 10:13:02;;;;;;;8.55;2.05;;;7.40;99.90;;;;;;5106228;28;20047;-94
2022/01/04 10:15:37;;;;;;;4.28;1.67;;;7.30;99.90;;;;;;5062794;28;20401;-88
2022/01/04 10:18:13;;;;;;;5.60;1.65;;;7.30;99.90;;;;;;5108962;28;20039;-92
2022/01/04 10:20:42;;;;;;;8.48;1.63;;;7.30;99.90;;;;;;5080485;28;20502;-91
2022/01/04 10:23:13;;;;;;;6.95;1.70;;;7.30;99.90;;;;;;5077830;28;20056;-95
2022/01/04 10:25:38;;;;;;;3.08;1.70;;;7.30;99.90;;;;;;5063919;28;20047;-93
2022/01/04 10:28:04;;;;;;;6.05;2.00;;;7.30;99.90;;;;;;5081295;28;20055;-91
2022/01/04 10:30:34;;;;;;;7.38;1.65;;;7.20;99.90;;;;;;5102846;28;20062;-86
2022/01/04 10:33:06;;;;;;;5.22;1.60;;;7.20;99.90;;;;;;5083765;28;20059;-91
2022/01/04 10:35:42;;;;;;;4.55;1.45;;;7.20;99.90;;;;;;5100358;28;20115;-88
2022/01/04 10:38:18;;;;;;;5.93;1.75;;;7.20;99.90;;;;;;5096803;28;20047;-92
2022/01/04 10:40:49;;;;;;;6.20;1.67;;;7.20;99.90;;;;;;5093714;28;20079;-90
2022/01/04 10:43:19;;;;;;;6.55;1.77;;;7.10;99.90;;;;;;5077803;28;20098;-91
2022/01/04 10:45:46;;;;;;;12.57;3.33;;;7.00;99.90;;;;;;5076873;28;20048;-90
2022/01/04 10:48:16;;;;;;;9.95;2.25;;;6.90;99.90;;;;;;5095127;28;20515;-90
2022/01/04 10:50:43;;;;;;;7.45;2.20;;;6.90;99.90;;;;;;5093558;28;20055;-91
2022/01/04 10:53:27;;;;;;;7.78;1.90;;;6.90;99.90;;;;;;5091175;28;20101;-92
2022/01/04 10:55:55;;;;;;;6.75;1.98;;;7.00;99.90;;;;;;5076891;28;20071;-88
2022/01/04 10:58:30;;;;;;;6.55;1.70;;;7.60;99.90;;;;;;5062925;28;20039;-89
2022/01/04 11:01:04;;;;;;;3.38;1.20;;;7.20;99.90;;;;;;5078598;28;20043;-91
2022/01/04 11:03:32;;;;;;;7.70;1.45;;;6.80;99.90;;;;;;5079536;28;20090;-91
2022/01/04 11:06:00;;;;;;;6.43;1.35;;;6.70;99.90;;;;;;5061277;28;20052;-90
2022/01/04 11:08:26;;;;;;;5.72;1.65;;;6.60;99.90;;;;;;5078418;28;20463;-88
2022/01/04 11:10:53;;;;;;;3.55;1.65;;;6.40;99.90;;;;;;5077827;28;20134;-90
2022/01/04 11:13:19;;;;;;;4.95;1.05;;;6.50;99.90;;;;;;5096040;28;20051;-92
2022/01/04 11:15:44;;;;;;;3.00;1.20;;;6.90;99.90;;;;;;5061677;28;20047;-91
2022/01/04 11:18:10;;;;;;;0.95;0.90;;;6.80;99.90;;;;;;5112417;28;20066;-90
2022/01/04 11:20:38;;;;;;;8.85;1.13;;;6.70;99.90;;;;;;5095812;28;20059;-86
2022/01/04 11:23:04;;;;;;;4.22;1.42;;;6.60;99.90;;;;;;5083020;28;20052;-90
2022/01/04 11:25:29;;;;;;;6.80;1.30;;;6.30;99.90;;;;;;5080303;28;20062;-90
2022/01/04 11:27:55;;;;;;;7.85;1.20;;;6.20;99.90;;;;;;5115571;28;20775;-88
2022/01/04 11:30:46;;;;;;;3.53;1.40;;;6.20;99.90;;;;;;5078345;28;20047;-89
2022/01/04 11:33:27;;;;;;;3.95;1.30;;;6.10;99.90;;;;;;5111349;28;20043;-89
2022/01/04 11:35:53;;;;;;;5.55;1.25;;;6.10;99.90;;;;;;5095934;28;20146;-89
2022/01/04 11:38:31;;;;;;;4.47;1.70;;;6.20;99.90;;;;;;5095856;28;20117;-89
2022/01/04 11:40:57;;;;;;;2.95;1.00;;;6.20;99.90;;;;;;5094429;28;20039;-87
2022/01/04 11:43:38;;;;;;;4.53;0.93;;;6.30;99.90;;;;;;5079633;28;20048;-91
2022/01/04 11:46:04;;;;;;;4.32;1.15;;;6.30;99.90;;;;;;5085117;28;20055;-93
2022/01/04 11:48:30;;;;;;;2.35;1.00;;;6.60;99.90;;;;;;5114469;28;20047;-94
2022/01/04 11:51:02;;;;;;;5.07;1.08;;;6.40;99.90;;;;;;5117800;28;20445;-93
2022/01/04 11:53:28;;;;;;;5.95;1.20;;;6.50;99.90;;;;;;5091405;28;20043;-92
2022/01/04 11:55:56;;;;;;;6.63;1.40;;;6.40;99.90;;;;;;5067728;28;20051;-91
2022/01/04 11:58:27;;;;;;;5.95;1.45;;;6.30;99.90;;;;;;5077910;28;20063;-94
2022/01/04 12:01:00;;;;;;;4.55;1.20;;;6.20;99.90;;;;;;5077083;28;20171;-92
2022/01/04 12:03:52;;;;;;;9.80;2.10;;;6.20;99.90;;;;;;5062773;28;20085;-88
2022/01/04 12:06:20;;;;;;;2.45;0.70;;;6.90;99.90;;;;;;5109166;28;20504;-85
2022/01/04 12:08:50;;;;;;;1.08;0.75;;;6.10;99.90;;;;;;5110910;28;20101;-89
2022/01/04 12:11:25;;;;;;;3.35;0.80;;;6.10;99.90;;;;;;5077240;28;20035;-86
2022/01/04 12:13:59;;;;;;;6.25;0.80;;;5.90;99.90;;;;;;5093921;28;20101;-86
2022/01/04 12:16:44;;;;;;;3.65;1.10;;;5.80;99.90;;;;;;5078530;28;20088;-87
2022/01/04 12:19:10;;;;;;;5.03;1.00;;;5.60;99.90;;;;;;5077776;28;20492;-87
2022/01/04 12:21:42;;;;;;;4.03;1.10;;;5.40;99.90;;;;;;5093865;28;20052;-86
2022/01/04 12:24:09;;;;;;;2.33;0.90;;;5.40;99.90;;;;;;5076282;28;20090;-87
2022/01/04 12:26:35;;;;;;;4.32;0.95;;;5.40;99.90;;;;;;5076798;28;20104;-87
2022/01/04 12:29:09;;;;;;;4.47;1.20;;;5.40;99.90;;;;;;5060118;28;20048;-87
2022/01/04 12:31:45;;;;;;;4.75;1.00;;;5.50;99.90;;;;;;5093917;28;20043;-87
2022/01/04 12:34:27;;;;;;;5.88;0.93;;;5.50;99.90;;;;;;5061579;28;20062;-88
2022/01/04 12:36:53;;;;;;;3.78;1.00;;;5.60;99.90;;;;;;5093276;28;20048;-88
2022/01/04 12:39:20;;;;;;;4.68;1.10;;;5.70;99.90;;;;;;5076602;28;20124;-87
2022/01/04 12:41:47;;;;;;;7.45;1.00;;;5.70;99.90;;;;;;5127177;27;20100;-86
2022/01/04 12:44:20;;;;;;;10.45;2.17;;;5.80;99.90;;;;;;5093703;28;20046;-87
2022/01/04 12:46:46;;;;;;;9.18;1.23;;;5.90;99.90;;;;;;5093487;28;20051;-86
2022/01/04 12:49:17;;;;;;;8.75;1.88;;;6.00;99.90;;;;;;5093401;28;20043;-92